Wellington, Illinois
Current Conditions -  °F | °C
As of 7:15 AM on Saturday 25 Oct 2014 (Local Time) from KDNV Reporting Station
Haze Haze  
Wind Chill: 51°   Ceiling: Unl
Heat Index: 51°   Visibility: 5mi
Dew Point: 49°   Wind: 6mph
Humidity: 95%   Direction: 280°W
Pressure: 29.94"   Gusts: NA
Location:  40.54°N, 87.68°W
Report Text: KDNV 251215Z AUTO 28005KT 5SM BR CLR 11/10 A2994 RMK AO2 T01050097
Loading
Personal Weather Stations






























Interactive Weather Map
Tropical Storm Tracking
New forecast layout! Learn more

10-Day Weather Forecast

Advertisements
Track Severe Weather on mobile